sensor_id;sensor_type;location;lat;lon;timestamp;P1;durP1;ratioP1;P2;durP2;ratioP2
74245;SDS011;62601;51.044;13.788;2022-08-21T00:02:19;45.80;;;32.43;;
74245;SDS011;62601;51.044;13.788;2022-08-21T00:04:40;41.07;;;31.10;;
74245;SDS011;62601;51.044;13.788;2022-08-21T00:07:02;47.03;;;33.70;;
74245;SDS011;62601;51.044;13.788;2022-08-21T00:09:22;40.30;;;30.60;;
74245;SDS011;62601;51.044;13.788;2022-08-21T00:11:43;43.37;;;31.47;;
74245;SDS011;62601;51.044;13.788;2022-08-21T00:14:06;40.10;;;31.17;;
74245;SDS011;62601;51.044;13.788;2022-08-21T00:16:40;45.10;;;31.90;;
74245;SDS011;62601;51.044;13.788;2022-08-21T00:19:00;38.67;;;31.00;;
74245;SDS011;62601;51.044;13.788;2022-08-21T00:21:20;42.07;;;31.00;;
74245;SDS011;62601;51.044;13.788;2022-08-21T00:23:42;38.17;;;30.10;;
74245;SDS011;62601;51.044;13.788;2022-08-21T00:26:02;40.67;;;30.13;;
74245;SDS011;62601;51.044;13.788;2022-08-21T00:28:24;37.33;;;30.93;;
74245;SDS011;62601;51.044;13.788;2022-08-21T00:30:48;41.10;;;31.60;;
74245;SDS011;62601;51.044;13.788;2022-08-21T00:33:10;40.87;;;31.20;;
74245;SDS011;62601;51.044;13.788;2022-08-21T00:35:32;46.97;;;32.40;;
74245;SDS011;62601;51.044;13.788;2022-08-21T00:37:52;42.20;;;30.97;;
74245;SDS011;62601;51.044;13.788;2022-08-21T00:40:15;42.60;;;31.43;;
74245;SDS011;62601;51.044;13.788;2022-08-21T00:42:36;38.83;;;31.10;;
74245;SDS011;62601;51.044;13.788;2022-08-21T00:44:58;40.60;;;30.33;;
74245;SDS011;62601;51.044;13.788;2022-08-21T00:47:20;38.60;;;29.30;;
74245;SDS011;62601;51.044;13.788;2022-08-21T00:49:41;45.50;;;31.17;;
74245;SDS011;62601;51.044;13.788;2022-08-21T00:52:03;39.63;;;30.90;;
74245;SDS011;62601;51.044;13.788;2022-08-21T00:54:26;44.87;;;31.23;;
74245;SDS011;62601;51.044;13.788;2022-08-21T00:56:50;41.97;;;32.30;;
74245;SDS011;62601;51.044;13.788;2022-08-21T00:59:21;42.50;;;31.17;;
74245;SDS011;62601;51.044;13.788;2022-08-21T01:01:44;43.57;;;31.97;;
74245;SDS011;62601;51.044;13.788;2022-08-21T01:04:06;43.93;;;32.63;;
74245;SDS011;62601;51.044;13.788;2022-08-21T01:06:26;44.27;;;32.37;;
74245;SDS011;62601;51.044;13.788;2022-08-21T01:08:47;42.27;;;31.23;;
74245;SDS011;62601;51.044;13.788;2022-08-21T01:11:08;41.93;;;32.17;;
74245;SDS011;62601;51.044;13.788;2022-08-21T01:13:31;41.30;;;32.87;;
74245;SDS011;62601;51.044;13.788;2022-08-21T01:15:54;41.67;;;30.90;;
74245;SDS011;62601;51.044;13.788;2022-08-21T01:18:16;48.90;;;33.80;;
74245;SDS011;62601;51.044;13.788;2022-08-21T01:20:38;44.53;;;35.33;;
74245;SDS011;62601;51.044;13.788;2022-08-21T01:23:02;45.00;;;33.77;;
74245;SDS011;62601;51.044;13.788;2022-08-21T01:25:23;42.77;;;32.90;;
74245;SDS011;62601;51.044;13.788;2022-08-21T01:27:46;45.83;;;34.80;;
74245;SDS011;62601;51.044;13.788;2022-08-21T01:30:14;40.97;;;31.67;;
74245;SDS011;62601;51.044;13.788;2022-08-21T01:32:36;42.03;;;31.50;;
74245;SDS011;62601;51.044;13.788;2022-08-21T01:34:58;35.53;;;28.40;;
74245;SDS011;62601;51.044;13.788;2022-08-21T01:37:19;35.87;;;28.50;;
74245;SDS011;62601;51.044;13.788;2022-08-21T01:39:40;36.60;;;28.07;;
74245;SDS011;62601;51.044;13.788;2022-08-21T01:42:03;33.47;;;26.23;;
74245;SDS011;62601;51.044;13.788;2022-08-21T01:44:24;32.57;;;27.23;;
74245;SDS011;62601;51.044;13.788;2022-08-21T01:46:44;29.37;;;23.93;;
74245;SDS011;62601;51.044;13.788;2022-08-21T01:49:05;26.80;;;22.00;;
74245;SDS011;62601;51.044;13.788;2022-08-21T01:51:29;21.83;;;19.03;;
74245;SDS011;62601;51.044;13.788;2022-08-21T01:53:49;20.90;;;18.70;;
74245;SDS011;62601;51.044;13.788;2022-08-21T01:56:11;22.00;;;19.20;;
74245;SDS011;62601;51.044;13.788;2022-08-21T01:58:35;26.23;;;18.53;;
74245;SDS011;62601;51.044;13.788;2022-08-21T02:00:57;20.63;;;17.83;;
74245;SDS011;62601;51.044;13.788;2022-08-21T02:03:18;19.43;;;17.30;;
74245;SDS011;62601;51.044;13.788;2022-08-21T02:05:40;18.27;;;16.37;;
74245;SDS011;62601;51.044;13.788;2022-08-21T02:08:01;20.40;;;16.50;;
74245;SDS011;62601;51.044;13.788;2022-08-21T02:10:28;18.93;;;14.70;;
74245;SDS011;62601;51.044;13.788;2022-08-21T02:12:49;20.27;;;16.40;;
74245;SDS011;62601;51.044;13.788;2022-08-21T02:15:09;21.90;;;16.10;;
74245;SDS011;62601;51.044;13.788;2022-08-21T02:17:41;17.10;;;15.17;;
74245;SDS011;62601;51.044;13.788;2022-08-21T02:20:03;18.63;;;15.63;;
74245;SDS011;62601;51.044;13.788;2022-08-21T02:22:25;16.43;;;14.73;;
74245;SDS011;62601;51.044;13.788;2022-08-21T02:24:46;17.37;;;15.00;;
74245;SDS011;62601;51.044;13.788;2022-08-21T02:27:06;15.13;;;13.53;;
74245;SDS011;62601;51.044;13.788;2022-08-21T02:29:28;14.30;;;12.80;;
74245;SDS011;62601;51.044;13.788;2022-08-21T02:31:49;16.23;;;13.50;;
74245;SDS011;62601;51.044;13.788;2022-08-21T02:34:10;14.33;;;12.80;;
74245;SDS011;62601;51.044;13.788;2022-08-21T02:36:31;15.27;;;13.57;;
74245;SDS011;62601;51.044;13.788;2022-08-21T02:38:52;15.20;;;13.50;;
74245;SDS011;62601;51.044;13.788;2022-08-21T02:41:14;16.40;;;13.97;;
74245;SDS011;62601;51.044;13.788;2022-08-21T02:43:36;15.90;;;14.23;;
74245;SDS011;62601;51.044;13.788;2022-08-21T02:45:57;16.87;;;14.03;;
74245;SDS011;62601;51.044;13.788;2022-08-21T02:48:20;15.63;;;13.60;;
74245;SDS011;62601;51.044;13.788;2022-08-21T02:50:43;15.73;;;13.43;;
74245;SDS011;62601;51.044;13.788;2022-08-21T02:53:05;17.27;;;15.37;;
74245;SDS011;62601;51.044;13.788;2022-08-21T02:55:28;17.20;;;14.07;;
74245;SDS011;62601;51.044;13.788;2022-08-21T02:57:49;17.10;;;14.20;;
74245;SDS011;62601;51.044;13.788;2022-08-21T03:00:11;18.03;;;14.27;;
74245;SDS011;62601;51.044;13.788;2022-08-21T03:02:32;15.70;;;13.97;;
74245;SDS011;62601;51.044;13.788;2022-08-21T03:04:54;15.60;;;13.53;;
74245;SDS011;62601;51.044;13.788;2022-08-21T03:07:14;16.33;;;13.70;;
74245;SDS011;62601;51.044;13.788;2022-08-21T03:09:35;15.60;;;14.00;;
74245;SDS011;62601;51.044;13.788;2022-08-21T03:11:58;15.63;;;13.30;;
74245;SDS011;62601;51.044;13.788;2022-08-21T03:14:19;16.00;;;13.57;;
74245;SDS011;62601;51.044;13.788;2022-08-21T03:16:40;14.73;;;13.23;;
74245;SDS011;62601;51.044;13.788;2022-08-21T03:19:02;13.70;;;12.30;;
74245;SDS011;62601;51.044;13.788;2022-08-21T03:21:23;15.87;;;13.80;;
74245;SDS011;62601;51.044;13.788;2022-08-21T03:23:44;15.97;;;13.93;;
74245;SDS011;62601;51.044;13.788;2022-08-21T03:26:06;14.87;;;13.37;;
74245;SDS011;62601;51.044;13.788;2022-08-21T03:28:27;14.93;;;13.37;;
74245;SDS011;62601;51.044;13.788;2022-08-21T03:30:48;15.37;;;13.83;;
74245;SDS011;62601;51.044;13.788;2022-08-21T03:33:08;15.77;;;13.33;;
74245;SDS011;62601;51.044;13.788;2022-08-21T03:35:30;15.03;;;13.23;;
74245;SDS011;62601;51.044;13.788;2022-08-21T03:37:51;14.80;;;13.20;;
74245;SDS011;62601;51.044;13.788;2022-08-21T03:40:15;15.07;;;13.47;;
74245;SDS011;62601;51.044;13.788;2022-08-21T03:42:37;15.33;;;13.27;;
74245;SDS011;62601;51.044;13.788;2022-08-21T03:45:01;16.97;;;13.53;;
74245;SDS011;62601;51.044;13.788;2022-08-21T03:47:23;18.93;;;13.93;;
74245;SDS011;62601;51.044;13.788;2022-08-21T03:49:45;14.97;;;13.20;;
74245;SDS011;62601;51.044;13.788;2022-08-21T03:52:06;18.53;;;14.70;;
74245;SDS011;62601;51.044;13.788;2022-08-21T03:54:27;20.47;;;15.87;;
74245;SDS011;62601;51.044;13.788;2022-08-21T03:56:49;16.67;;;14.87;;
74245;SDS011;62601;51.044;13.788;2022-08-21T03:59:10;19.07;;;14.73;;
74245;SDS011;62601;51.044;13.788;2022-08-21T04:01:30;16.97;;;14.20;;
74245;SDS011;62601;51.044;13.788;2022-08-21T04:03:52;17.10;;;13.67;;
74245;SDS011;62601;51.044;13.788;2022-08-21T04:06:13;16.70;;;13.30;;
74245;SDS011;62601;51.044;13.788;2022-08-21T04:08:35;17.60;;;14.80;;
74245;SDS011;62601;51.044;13.788;2022-08-21T04:10:56;18.20;;;14.73;;
74245;SDS011;62601;51.044;13.788;2022-08-21T04:13:18;16.23;;;14.53;;
74245;SDS011;62601;51.044;13.788;2022-08-21T04:15:38;15.70;;;14.10;;
74245;SDS011;62601;51.044;13.788;2022-08-21T04:17:59;16.43;;;14.60;;
74245;SDS011;62601;51.044;13.788;2022-08-21T04:20:21;17.93;;;14.40;;
74245;SDS011;62601;51.044;13.788;2022-08-21T04:22:43;16.13;;;13.37;;
74245;SDS011;62601;51.044;13.788;2022-08-21T04:25:04;15.33;;;13.73;;
74245;SDS011;62601;51.044;13.788;2022-08-21T04:27:26;16.87;;;14.90;;
74245;SDS011;62601;51.044;13.788;2022-08-21T04:29:48;17.07;;;15.13;;
74245;SDS011;62601;51.044;13.788;2022-08-21T04:32:08;15.10;;;13.50;;
74245;SDS011;62601;51.044;13.788;2022-08-21T04:34:30;15.37;;;13.77;;
74245;SDS011;62601;51.044;13.788;2022-08-21T04:36:51;16.40;;;14.70;;
74245;SDS011;62601;51.044;13.788;2022-08-21T04:39:12;15.40;;;13.80;;
74245;SDS011;62601;51.044;13.788;2022-08-21T04:41:34;15.07;;;13.57;;
74245;SDS011;62601;51.044;13.788;2022-08-21T04:43:56;15.87;;;14.17;;
74245;SDS011;62601;51.044;13.788;2022-08-21T04:46:17;15.50;;;14.00;;
74245;SDS011;62601;51.044;13.788;2022-08-21T04:48:38;14.67;;;13.17;;
74245;SDS011;62601;51.044;13.788;2022-08-21T04:51:07;17.97;;;15.53;;
74245;SDS011;62601;51.044;13.788;2022-08-21T04:56:11;14.83;;;13.30;;
74245;SDS011;62601;51.044;13.788;2022-08-21T04:58:34;15.57;;;13.87;;
74245;SDS011;62601;51.044;13.788;2022-08-21T05:00:59;17.57;;;15.30;;
74245;SDS011;62601;51.044;13.788;2022-08-21T05:03:21;15.57;;;13.67;;
74245;SDS011;62601;51.044;13.788;2022-08-21T05:05:42;15.30;;;13.70;;
74245;SDS011;62601;51.044;13.788;2022-08-21T05:08:03;14.03;;;12.70;;
74245;SDS011;62601;51.044;13.788;2022-08-21T05:10:28;15.07;;;13.03;;
74245;SDS011;62601;51.044;13.788;2022-08-21T05:12:50;14.60;;;13.10;;
74245;SDS011;62601;51.044;13.788;2022-08-21T05:15:11;15.30;;;13.13;;
74245;SDS011;62601;51.044;13.788;2022-08-21T05:17:33;16.40;;;13.90;;
74245;SDS011;62601;51.044;13.788;2022-08-21T05:19:54;14.60;;;13.07;;
74245;SDS011;62601;51.044;13.788;2022-08-21T05:22:22;13.53;;;12.10;;
74245;SDS011;62601;51.044;13.788;2022-08-21T05:24:44;14.73;;;13.27;;
74245;SDS011;62601;51.044;13.788;2022-08-21T05:27:05;14.43;;;13.00;;
74245;SDS011;62601;51.044;13.788;2022-08-21T05:29:25;14.80;;;13.30;;
74245;SDS011;62601;51.044;13.788;2022-08-21T05:31:46;15.03;;;13.43;;
74245;SDS011;62601;51.044;13.788;2022-08-21T05:34:08;14.30;;;12.87;;
74245;SDS011;62601;51.044;13.788;2022-08-21T05:36:30;14.20;;;12.70;;
74245;SDS011;62601;51.044;13.788;2022-08-21T05:38:51;16.97;;;12.40;;
74245;SDS011;62601;51.044;13.788;2022-08-21T05:41:12;14.70;;;13.30;;
74245;SDS011;62601;51.044;13.788;2022-08-21T05:43:34;17.60;;;12.93;;
74245;SDS011;62601;51.044;13.788;2022-08-21T05:45:54;15.67;;;14.10;;
74245;SDS011;62601;51.044;13.788;2022-08-21T05:48:18;14.70;;;13.23;;
74245;SDS011;62601;51.044;13.788;2022-08-21T05:50:40;14.10;;;11.60;;
74245;SDS011;62601;51.044;13.788;2022-08-21T05:53:02;15.10;;;13.50;;
74245;SDS011;62601;51.044;13.788;2022-08-21T05:55:23;15.27;;;12.10;;
74245;SDS011;62601;51.044;13.788;2022-08-21T05:57:45;13.47;;;12.13;;
74245;SDS011;62601;51.044;13.788;2022-08-21T06:00:05;16.40;;;13.67;;
74245;SDS011;62601;51.044;13.788;2022-08-21T06:02:25;17.27;;;13.80;;
74245;SDS011;62601;51.044;13.788;2022-08-21T06:04:47;16.07;;;14.47;;
74245;SDS011;62601;51.044;13.788;2022-08-21T06:07:08;15.20;;;13.50;;
74245;SDS011;62601;51.044;13.788;2022-08-21T06:09:29;17.30;;;15.50;;
74245;SDS011;62601;51.044;13.788;2022-08-21T06:11:49;15.87;;;14.13;;
74245;SDS011;62601;51.044;13.788;2022-08-21T06:14:10;106.40;;;46.73;;
74245;SDS011;62601;51.044;13.788;2022-08-21T06:16:34;30.93;;;21.83;;
74245;SDS011;62601;51.044;13.788;2022-08-21T06:18:55;19.27;;;15.50;;
74245;SDS011;62601;51.044;13.788;2022-08-21T06:21:17;22.90;;;17.77;;
74245;SDS011;62601;51.044;13.788;2022-08-21T06:23:40;17.77;;;15.97;;
74245;SDS011;62601;51.044;13.788;2022-08-21T06:26:01;21.23;;;16.70;;
74245;SDS011;62601;51.044;13.788;2022-08-21T06:28:23;20.13;;;16.33;;
74245;SDS011;62601;51.044;13.788;2022-08-21T06:30:43;19.73;;;16.30;;
74245;SDS011;62601;51.044;13.788;2022-08-21T06:33:04;21.30;;;18.27;;
74245;SDS011;62601;51.044;13.788;2022-08-21T06:35:25;22.63;;;17.80;;
74245;SDS011;62601;51.044;13.788;2022-08-21T06:37:45;20.87;;;17.60;;
74245;SDS011;62601;51.044;13.788;2022-08-21T06:40:06;23.20;;;20.70;;
74245;SDS011;62601;51.044;13.788;2022-08-21T06:42:27;23.80;;;20.63;;
74245;SDS011;62601;51.044;13.788;2022-08-21T06:44:49;22.10;;;19.10;;
74245;SDS011;62601;51.044;13.788;2022-08-21T06:47:09;24.77;;;20.30;;
74245;SDS011;62601;51.044;13.788;2022-08-21T06:49:30;24.17;;;20.30;;
74245;SDS011;62601;51.044;13.788;2022-08-21T06:51:52;30.13;;;26.00;;
74245;SDS011;62601;51.044;13.788;2022-08-21T06:54:13;26.63;;;23.80;;
74245;SDS011;62601;51.044;13.788;2022-08-21T06:56:35;26.70;;;23.50;;
74245;SDS011;62601;51.044;13.788;2022-08-21T06:58:56;24.10;;;21.53;;
74245;SDS011;62601;51.044;13.788;2022-08-21T07:01:19;28.63;;;22.60;;
74245;SDS011;62601;51.044;13.788;2022-08-21T07:03:42;25.53;;;22.77;;
74245;SDS011;62601;51.044;13.788;2022-08-21T07:06:04;26.07;;;23.20;;
74245;SDS011;62601;51.044;13.788;2022-08-21T07:08:26;51.37;;;33.33;;
74245;SDS011;62601;51.044;13.788;2022-08-21T07:10:47;23.50;;;21.00;;
74245;SDS011;62601;51.044;13.788;2022-08-21T07:13:08;25.17;;;21.37;;
74245;SDS011;62601;51.044;13.788;2022-08-21T07:15:29;25.83;;;21.77;;
74245;SDS011;62601;51.044;13.788;2022-08-21T07:17:50;26.73;;;21.57;;
74245;SDS011;62601;51.044;13.788;2022-08-21T07:20:10;23.97;;;21.47;;
74245;SDS011;62601;51.044;13.788;2022-08-21T07:22:35;22.77;;;20.20;;
74245;SDS011;62601;51.044;13.788;2022-08-21T07:25:00;22.20;;;19.77;;
74245;SDS011;62601;51.044;13.788;2022-08-21T07:27:20;24.73;;;22.10;;
74245;SDS011;62601;51.044;13.788;2022-08-21T07:29:41;23.93;;;21.53;;
74245;SDS011;62601;51.044;13.788;2022-08-21T07:32:01;23.70;;;21.30;;
74245;SDS011;62601;51.044;13.788;2022-08-21T07:34:23;23.40;;;21.00;;
74245;SDS011;62601;51.044;13.788;2022-08-21T07:36:44;25.23;;;22.50;;
74245;SDS011;62601;51.044;13.788;2022-08-21T07:39:05;22.63;;;20.30;;
74245;SDS011;62601;51.044;13.788;2022-08-21T07:41:27;23.67;;;19.67;;
74245;SDS011;62601;51.044;13.788;2022-08-21T07:43:48;23.10;;;20.63;;
74245;SDS011;62601;51.044;13.788;2022-08-21T07:46:09;22.57;;;20.27;;
74245;SDS011;62601;51.044;13.788;2022-08-21T07:48:31;22.20;;;20.00;;
74245;SDS011;62601;51.044;13.788;2022-08-21T07:50:52;22.17;;;19.33;;
74245;SDS011;62601;51.044;13.788;2022-08-21T07:53:13;20.97;;;18.90;;
74245;SDS011;62601;51.044;13.788;2022-08-21T07:55:34;20.87;;;18.77;;
74245;SDS011;62601;51.044;13.788;2022-08-21T07:57:56;19.53;;;17.53;;
74245;SDS011;62601;51.044;13.788;2022-08-21T08:00:19;19.60;;;17.70;;
74245;SDS011;62601;51.044;13.788;2022-08-21T08:02:49;24.03;;;20.67;;
74245;SDS011;62601;51.044;13.788;2022-08-21T08:05:10;28.03;;;25.10;;
74245;SDS011;62601;51.044;13.788;2022-08-21T08:07:32;24.20;;;20.87;;
74245;SDS011;62601;51.044;13.788;2022-08-21T08:09:52;20.87;;;18.67;;
74245;SDS011;62601;51.044;13.788;2022-08-21T08:12:13;20.67;;;18.47;;
74245;SDS011;62601;51.044;13.788;2022-08-21T08:14:34;20.40;;;18.50;;
74245;SDS011;62601;51.044;13.788;2022-08-21T08:16:56;21.70;;;19.27;;
74245;SDS011;62601;51.044;13.788;2022-08-21T08:19:18;22.00;;;19.67;;
74245;SDS011;62601;51.044;13.788;2022-08-21T08:21:39;19.73;;;17.73;;
74245;SDS011;62601;51.044;13.788;2022-08-21T08:23:59;21.07;;;19.07;;
74245;SDS011;62601;51.044;13.788;2022-08-21T08:26:21;21.43;;;18.17;;
74245;SDS011;62601;51.044;13.788;2022-08-21T08:28:42;19.37;;;17.47;;
74245;SDS011;62601;51.044;13.788;2022-08-21T08:31:04;20.03;;;18.03;;
74245;SDS011;62601;51.044;13.788;2022-08-21T08:33:25;20.90;;;17.53;;
74245;SDS011;62601;51.044;13.788;2022-08-21T08:35:48;18.10;;;16.40;;
74245;SDS011;62601;51.044;13.788;2022-08-21T08:38:10;18.97;;;17.17;;
74245;SDS011;62601;51.044;13.788;2022-08-21T08:41:31;19.27;;;17.27;;
74245;SDS011;62601;51.044;13.788;2022-08-21T08:43:22;18.97;;;17.10;;
74245;SDS011;62601;51.044;13.788;2022-08-21T08:45:45;17.97;;;16.20;;
74245;SDS011;62601;51.044;13.788;2022-08-21T08:48:08;23.97;;;21.67;;
74245;SDS011;62601;51.044;13.788;2022-08-21T08:50:38;20.47;;;18.37;;
74245;SDS011;62601;51.044;13.788;2022-08-21T08:53:05;19.93;;;17.73;;
74245;SDS011;62601;51.044;13.788;2022-08-21T08:55:36;18.90;;;17.10;;
74245;SDS011;62601;51.044;13.788;2022-08-21T08:57:58;18.37;;;16.67;;
74245;SDS011;62601;51.044;13.788;2022-08-21T09:00:21;19.20;;;17.20;;
74245;SDS011;62601;51.044;13.788;2022-08-21T09:02:43;17.97;;;16.27;;
74245;SDS011;62601;51.044;13.788;2022-08-21T09:05:05;19.20;;;17.20;;
74245;SDS011;62601;51.044;13.788;2022-08-21T09:12:50;16.20;;;14.70;;
74245;SDS011;62601;51.044;13.788;2022-08-21T09:15:58;17.23;;;15.47;;
74245;SDS011;62601;51.044;13.788;2022-08-21T09:20:49;15.33;;;13.53;;
74245;SDS011;62601;51.044;13.788;2022-08-21T09:23:25;15.13;;;13.70;;
74245;SDS011;62601;51.044;13.788;2022-08-21T09:28:45;18.27;;;16.40;;
74245;SDS011;62601;51.044;13.788;2022-08-21T09:31:15;14.67;;;13.30;;
74245;SDS011;62601;51.044;13.788;2022-08-21T09:33:37;13.93;;;12.53;;
74245;SDS011;62601;51.044;13.788;2022-08-21T09:35:59;13.07;;;11.97;;
74245;SDS011;62601;51.044;13.788;2022-08-21T09:38:34;10.77;;;9.80;;
74245;SDS011;62601;51.044;13.788;2022-08-21T09:41:00;8.30;;;7.37;;
74245;SDS011;62601;51.044;13.788;2022-08-21T09:43:21;9.10;;;7.70;;
74245;SDS011;62601;51.044;13.788;2022-08-21T09:45:42;14.53;;;8.97;;
74245;SDS011;62601;51.044;13.788;2022-08-21T09:48:12;8.83;;;7.90;;
74245;SDS011;62601;51.044;13.788;2022-08-21T09:50:34;10.93;;;9.77;;
74245;SDS011;62601;51.044;13.788;2022-08-21T09:52:57;10.00;;;9.00;;
74245;SDS011;62601;51.044;13.788;2022-08-21T09:55:39;8.23;;;7.43;;
74245;SDS011;62601;51.044;13.788;2022-08-21T09:58:07;19.67;;;11.70;;
74245;SDS011;62601;51.044;13.788;2022-08-21T10:00:32;7.23;;;6.00;;
74245;SDS011;62601;51.044;13.788;2022-08-21T10:02:53;7.70;;;6.80;;
74245;SDS011;62601;51.044;13.788;2022-08-21T10:05:27;6.60;;;6.07;;
74245;SDS011;62601;51.044;13.788;2022-08-21T10:07:48;7.20;;;6.50;;
74245;SDS011;62601;51.044;13.788;2022-08-21T10:10:31;6.40;;;5.80;;
74245;SDS011;62601;51.044;13.788;2022-08-21T10:18:22;5.50;;;4.60;;
74245;SDS011;62601;51.044;13.788;2022-08-21T10:20:48;6.60;;;4.93;;
74245;SDS011;62601;51.044;13.788;2022-08-21T10:25:52;9.87;;;5.40;;
74245;SDS011;62601;51.044;13.788;2022-08-21T10:28:21;5.77;;;5.10;;
74245;SDS011;62601;51.044;13.788;2022-08-21T10:31:00;6.20;;;4.47;;
74245;SDS011;62601;51.044;13.788;2022-08-21T10:36:20;6.10;;;5.40;;
74245;SDS011;62601;51.044;13.788;2022-08-21T10:38:47;7.37;;;5.50;;
74245;SDS011;62601;51.044;13.788;2022-08-21T10:41:27;6.07;;;4.90;;
74245;SDS011;62601;51.044;13.788;2022-08-21T10:43:51;4.87;;;3.93;;
74245;SDS011;62601;51.044;13.788;2022-08-21T10:46:32;4.80;;;4.30;;
74245;SDS011;62601;51.044;13.788;2022-08-21T10:51:49;11.67;;;4.57;;
74245;SDS011;62601;51.044;13.788;2022-08-21T10:54:25;4.47;;;3.60;;
74245;SDS011;62601;51.044;13.788;2022-08-21T10:56:48;4.33;;;3.93;;
74245;SDS011;62601;51.044;13.788;2022-08-21T10:59:31;4.40;;;4.00;;
74245;SDS011;62601;51.044;13.788;2022-08-21T11:02:03;8.77;;;4.60;;
74245;SDS011;62601;51.044;13.788;2022-08-21T11:09:38;6.37;;;4.50;;
74245;SDS011;62601;51.044;13.788;2022-08-21T11:12:06;4.77;;;4.20;;
74245;SDS011;62601;51.044;13.788;2022-08-21T11:17:09;9.03;;;4.33;;
74245;SDS011;62601;51.044;13.788;2022-08-21T11:19:45;4.57;;;3.83;;
74245;SDS011;62601;51.044;13.788;2022-08-21T11:22:18;5.40;;;3.43;;
74245;SDS011;62601;51.044;13.788;2022-08-21T11:24:44;7.07;;;3.77;;
74245;SDS011;62601;51.044;13.788;2022-08-21T11:29:52;7.90;;;3.77;;
74245;SDS011;62601;51.044;13.788;2022-08-21T11:40:03;4.23;;;3.07;;
74245;SDS011;62601;51.044;13.788;2022-08-21T11:42:39;6.30;;;3.20;;
74245;SDS011;62601;51.044;13.788;2022-08-21T11:47:58;7.30;;;3.30;;
74245;SDS011;62601;51.044;13.788;2022-08-21T11:50:26;4.50;;;3.00;;
74245;SDS011;62601;51.044;13.788;2022-08-21T11:58:20;3.57;;;2.93;;
74245;SDS011;62601;51.044;13.788;2022-08-21T12:01:05;7.20;;;3.20;;
74245;SDS011;62601;51.044;13.788;2022-08-21T12:03:31;5.93;;;2.87;;
74245;SDS011;62601;51.044;13.788;2022-08-21T12:05:56;3.50;;;2.90;;
74245;SDS011;62601;51.044;13.788;2022-08-21T12:08:45;5.23;;;2.50;;
74245;SDS011;62601;51.044;13.788;2022-08-21T12:16:39;4.20;;;1.80;;
74245;SDS011;62601;51.044;13.788;2022-08-21T12:19:08;3.80;;;2.40;;
74245;SDS011;62601;51.044;13.788;2022-08-21T12:21:28;4.80;;;2.10;;
74245;SDS011;62601;51.044;13.788;2022-08-21T12:26:38;3.87;;;1.70;;
74245;SDS011;62601;51.044;13.788;2022-08-21T12:29:12;4.80;;;2.07;;
74245;SDS011;62601;51.044;13.788;2022-08-21T12:31:34;2.83;;;1.87;;
74245;SDS011;62601;51.044;13.788;2022-08-21T12:34:01;7.60;;;2.20;;
74245;SDS011;62601;51.044;13.788;2022-08-21T12:36:28;4.67;;;2.30;;
74245;SDS011;62601;51.044;13.788;2022-08-21T12:38:59;3.20;;;1.73;;
74245;SDS011;62601;51.044;13.788;2022-08-21T12:44:15;3.63;;;2.00;;
74245;SDS011;62601;51.044;13.788;2022-08-21T12:47:00;4.30;;;2.07;;
74245;SDS011;62601;51.044;13.788;2022-08-21T12:50:08;5.83;;;2.10;;
74245;SDS011;62601;51.044;13.788;2022-08-21T12:52:11;3.00;;;1.70;;
74245;SDS011;62601;51.044;13.788;2022-08-21T12:54:37;2.27;;;2.07;;
74245;SDS011;62601;51.044;13.788;2022-08-21T12:57:02;2.17;;;1.73;;
74245;SDS011;62601;51.044;13.788;2022-08-21T12:59:24;3.63;;;2.10;;
74245;SDS011;62601;51.044;13.788;2022-08-21T13:01:46;2.37;;;1.70;;
74245;SDS011;62601;51.044;13.788;2022-08-21T13:04:13;2.97;;;2.10;;
74245;SDS011;62601;51.044;13.788;2022-08-21T13:06:41;3.60;;;2.30;;
74245;SDS011;62601;51.044;13.788;2022-08-21T13:09:07;5.73;;;2.20;;
74245;SDS011;62601;51.044;13.788;2022-08-21T13:11:39;3.77;;;1.97;;
74245;SDS011;62601;51.044;13.788;2022-08-21T13:14:02;4.27;;;2.10;;
74245;SDS011;62601;51.044;13.788;2022-08-21T13:16:25;3.63;;;1.90;;
74245;SDS011;62601;51.044;13.788;2022-08-21T13:19:20;11.63;;;2.60;;
74245;SDS011;62601;51.044;13.788;2022-08-21T13:21:39;5.20;;;2.53;;
74245;SDS011;62601;51.044;13.788;2022-08-21T13:24:12;4.43;;;2.37;;
74245;SDS011;62601;51.044;13.788;2022-08-21T13:26:34;6.07;;;2.40;;
74245;SDS011;62601;51.044;13.788;2022-08-21T13:28:57;3.20;;;2.50;;
74245;SDS011;62601;51.044;13.788;2022-08-21T13:31:27;4.20;;;2.53;;
74245;SDS011;62601;51.044;13.788;2022-08-21T13:33:49;4.30;;;1.73;;
74245;SDS011;62601;51.044;13.788;2022-08-21T13:36:20;3.27;;;2.60;;
74245;SDS011;62601;51.044;13.788;2022-08-21T13:38:41;5.53;;;2.90;;
74245;SDS011;62601;51.044;13.788;2022-08-21T13:41:08;3.43;;;2.23;;
74245;SDS011;62601;51.044;13.788;2022-08-21T13:43:33;5.67;;;2.57;;
74245;SDS011;62601;51.044;13.788;2022-08-21T13:46:06;2.80;;;2.40;;
74245;SDS011;62601;51.044;13.788;2022-08-21T13:48:29;3.50;;;2.80;;
74245;SDS011;62601;51.044;13.788;2022-08-21T13:50:52;2.80;;;2.47;;
74245;SDS011;62601;51.044;13.788;2022-08-21T13:54:02;3.83;;;2.30;;
74245;SDS011;62601;51.044;13.788;2022-08-21T13:56:04;3.43;;;2.33;;
74245;SDS011;62601;51.044;13.788;2022-08-21T13:58:41;4.30;;;3.33;;
74245;SDS011;62601;51.044;13.788;2022-08-21T14:01:02;2.67;;;2.30;;
74245;SDS011;62601;51.044;13.788;2022-08-21T14:03:34;2.57;;;2.30;;
74245;SDS011;62601;51.044;13.788;2022-08-21T14:05:57;4.43;;;2.30;;
74245;SDS011;62601;51.044;13.788;2022-08-21T14:08:28;5.87;;;2.03;;
74245;SDS011;62601;51.044;13.788;2022-08-21T14:10:50;4.60;;;1.87;;
74245;SDS011;62601;51.044;13.788;2022-08-21T14:15:55;2.73;;;2.00;;
74245;SDS011;62601;51.044;13.788;2022-08-21T14:18:17;3.23;;;1.80;;
74245;SDS011;62601;51.044;13.788;2022-08-21T14:20:38;3.60;;;2.10;;
74245;SDS011;62601;51.044;13.788;2022-08-21T14:23:00;4.60;;;2.57;;
74245;SDS011;62601;51.044;13.788;2022-08-21T14:25:28;2.43;;;2.00;;
74245;SDS011;62601;51.044;13.788;2022-08-21T14:27:56;2.83;;;2.10;;
74245;SDS011;62601;51.044;13.788;2022-08-21T14:30:33;2.87;;;2.10;;
74245;SDS011;62601;51.044;13.788;2022-08-21T14:32:53;4.30;;;2.40;;
74245;SDS011;62601;51.044;13.788;2022-08-21T14:35:14;5.07;;;2.67;;
74245;SDS011;62601;51.044;13.788;2022-08-21T14:37:35;3.10;;;2.10;;
74245;SDS011;62601;51.044;13.788;2022-08-21T14:39:57;3.97;;;2.10;;
74245;SDS011;62601;51.044;13.788;2022-08-21T14:42:18;7.00;;;2.40;;
74245;SDS011;62601;51.044;13.788;2022-08-21T14:44:40;6.80;;;2.10;;
74245;SDS011;62601;51.044;13.788;2022-08-21T14:47:01;5.60;;;2.27;;
74245;SDS011;62601;51.044;13.788;2022-08-21T14:49:26;4.50;;;2.20;;
74245;SDS011;62601;51.044;13.788;2022-08-21T14:51:48;6.50;;;3.20;;
74245;SDS011;62601;51.044;13.788;2022-08-21T14:54:09;4.17;;;2.30;;
74245;SDS011;62601;51.044;13.788;2022-08-21T14:56:29;9.80;;;2.77;;
74245;SDS011;62601;51.044;13.788;2022-08-21T14:58:49;5.47;;;3.40;;
74245;SDS011;62601;51.044;13.788;2022-08-21T15:01:13;4.50;;;3.70;;
74245;SDS011;62601;51.044;13.788;2022-08-21T15:03:33;4.80;;;3.10;;
74245;SDS011;62601;51.044;13.788;2022-08-21T15:05:55;5.43;;;3.50;;